Time;durP1;ratioP1;P1;durP2;ratioP2;P2;SDS_P1;SDS_P2;PMS_P1;PMS_P2;Temp;Humidity;BMP_temperature;BMP_pressure;BME280_temperature;BME280_humidity;BME280_pressure;Samples;Min_cycle;Max_cycle;Signal;HPM_P1;HPM_P2
2021/05/31 00:01:42;;;;;;;4.65;1.90;;;;;;;12.17;76.41;100175.07;1664654;83;21133;-74
2021/05/31 00:04:08;;;;;;;5.33;2.02;;;;;;;12.18;76.30;100172.77;1691984;82;21043;-74
2021/05/31 00:06:58;;;;;;;6.90;1.95;;;;;;;12.17;76.21;100171.09;1682200;83;21768;-73
2021/05/31 00:09:25;;;;;;;2.47;1.30;;;;;;;12.18;76.11;100172.77;1727766;81;21042;-73
2021/05/31 00:11:52;;;;;;;2.33;1.20;;;;;;;12.20;75.93;100178.27;1727597;80;21549;-74
2021/05/31 00:14:20;;;;;;;3.62;1.20;;;;;;;12.20;75.85;100178.27;1767984;81;21490;-72
2021/05/31 00:16:47;;;;;;;3.17;1.07;;;;;;;12.23;75.79;100187.25;1731569;81;21036;-73
2021/05/31 00:19:15;;;;;;;2.25;1.20;;;;;;;12.25;75.59;100183.14;1728644;81;21036;-73
2021/05/31 00:21:42;;;;;;;3.52;1.37;;;;;;;12.26;75.52;100176.89;1666200;84;21062;-74
2021/05/31 00:24:10;;;;;;;3.05;1.20;;;;;;;12.27;75.46;100181.22;1707748;83;21576;-73
2021/05/31 00:26:38;;;;;;;3.00;1.30;;;;;;;12.27;75.42;100182.05;1720420;83;21495;-73
2021/05/31 00:29:06;;;;;;;2.52;1.35;;;;;;;12.27;75.45;100178.56;1726849;82;21489;-73
2021/05/31 00:31:33;;;;;;;4.08;1.60;;;;;;;12.28;75.49;100178.42;1726931;83;21778;-73
2021/05/31 00:34:01;;;;;;;3.77;1.57;;;;;;;12.30;75.47;100175.63;1722493;83;21093;-73
2021/05/31 00:36:28;;;;;;;4.67;1.40;;;;;;;12.29;75.47;100181.42;1714486;83;21116;-73
2021/05/31 00:38:55;;;;;;;3.85;1.80;;;;;;;12.31;75.45;100183.44;1680057;84;21027;-72
2021/05/31 00:41:22;;;;;;;2.67;1.62;;;;;;;12.32;75.46;100181.62;1719159;82;21100;-73
2021/05/31 00:43:49;;;;;;;2.92;1.40;;;;;;;12.33;75.51;100174.02;1698993;83;21731;-72
2021/05/31 00:46:16;;;;;;;5.35;1.90;;;;;;;12.35;75.55;100172.56;1714337;83;21477;-73
2021/05/31 00:48:42;;;;;;;3.90;1.90;;;;;;;12.32;75.43;100167.89;1711078;83;21599;-73
2021/05/31 00:51:11;;;;;;;8.05;2.58;;;;;;;12.29;75.36;100170.83;1707817;83;21422;-75
2021/05/31 00:53:38;;;;;;;4.62;2.08;;;;;;;12.26;75.33;100171.11;1678667;84;20956;-74
2021/05/31 00:56:05;;;;;;;4.62;2.20;;;;;;;12.24;75.26;100169.55;1684586;84;21804;-73
2021/05/31 00:58:31;;;;;;;5.22;2.60;;;;;;;12.21;75.17;100164.54;1708755;82;21085;-73
2021/05/31 01:01:01;;;;;;;3.72;1.72;;;;;;;12.19;75.20;100166.01;1708831;83;21419;-73
2021/05/31 01:03:27;;;;;;;2.15;1.20;;;;;;;12.21;75.29;100165.86;1720645;83;21018;-73
2021/05/31 01:06:00;;;;;;;1.98;1.15;;;;;;;12.21;75.38;100166.70;1724089;83;21073;-74
2021/05/31 01:09:05;;;;;;;2.17;1.30;;;;;;;12.22;75.35;100170.19;1675824;83;22187;-73
2021/05/31 01:11:43;;;;;;;3.67;1.55;;;;;;;12.23;75.30;100166.06;1687716;84;21097;-73
2021/05/31 01:14:32;;;;;;;5.28;1.50;;;;;;;12.26;75.34;100167.62;1683524;85;20999;-73
2021/05/31 01:17:27;;;;;;;2.37;1.52;;;;;;;12.27;75.37;100166.16;1691947;83;21022;-73
2021/05/31 01:20:27;;;;;;;2.22;1.20;;;;;;;12.28;75.42;100167.00;1700517;83;21039;-73
2021/05/31 01:22:53;;;;;;;1.65;1.02;;;;;;;12.30;75.40;100163.23;1686398;85;21881;-73
2021/05/31 01:25:56;;;;;;;2.45;1.30;;;;;;;12.29;75.43;100159.40;1686542;85;21106;-73
2021/05/31 01:28:45;;;;;;;1.60;1.03;;;;;;;12.30;75.48;100161.06;1713098;83;21042;-72
2021/05/31 01:31:15;;;;;;;2.00;1.62;;;;;;;12.30;75.58;100149.98;1676185;83;21094;-73
2021/05/31 01:33:41;;;;;;;3.58;1.72;;;;;;;12.31;75.69;100146.36;1708858;83;21563;-72
2021/05/31 01:36:08;;;;;;;1.42;1.20;;;;;;;12.33;75.67;100143.08;1703367;83;21806;-73
2021/05/31 01:38:34;;;;;;;1.67;1.20;;;;;;;12.32;75.75;100148.52;1718214;83;21082;-72
2021/05/31 01:41:01;;;;;;;3.58;1.50;;;;;;;12.30;75.85;100145.18;1705752;83;21045;-74
2021/05/31 01:43:28;;;;;;;2.40;1.65;;;;;;;12.31;75.93;100146.36;1698083;83;21006;-72
2021/05/31 01:45:55;;;;;;;3.30;1.92;;;;;;;12.30;76.05;100149.98;1690384;83;21085;-73
2021/05/31 01:48:22;;;;;;;3.37;1.60;;;;;;;12.28;76.07;100152.44;1682860;83;22165;-73
2021/05/31 01:50:48;;;;;;;2.70;1.50;;;;;;;12.29;76.13;100153.61;1712589;83;20967;-78
2021/05/31 01:53:15;;;;;;;2.47;1.60;;;;;;;12.32;76.22;100157.78;1677178;85;21056;-72
2021/05/31 01:55:41;;;;;;;2.02;1.27;;;;;;;12.35;76.22;100152.20;1686929;85;21688;-72
2021/05/31 01:58:08;;;;;;;2.52;1.47;;;;;;;12.36;76.21;100149.94;1710847;83;21516;-72
2021/05/31 02:00:35;;;;;;;3.00;1.42;;;;;;;12.33;76.22;100143.08;1686439;84;22370;-73
2021/05/31 02:03:02;;;;;;;2.10;1.30;;;;;;;12.31;76.34;100150.33;1704883;83;21577;-72
2021/05/31 02:05:29;;;;;;;2.35;1.35;;;;;;;12.29;76.43;100146.99;1693519;83;21640;-72
2021/05/31 02:07:55;;;;;;;2.75;1.42;;;;;;;12.29;76.51;100152.28;1708702;82;21164;-72
2021/05/31 02:10:22;;;;;;;4.47;1.50;;;;;;;12.30;76.54;100149.15;1731928;81;21080;-72
2021/05/31 02:12:55;;;;;;;3.85;1.50;;;;;;;12.30;76.55;100151.80;1714402;83;21692;-73
2021/05/31 02:15:37;;;;;;;2.52;1.72;;;;;;;12.27;76.57;100152.92;1667937;85;21046;-72
2021/05/31 02:18:22;;;;;;;2.47;1.52;;;;;;;12.26;76.58;100154.39;1691919;83;21102;-72
2021/05/31 02:20:51;;;;;;;3.00;1.80;;;;;;;12.25;76.65;100149.55;1670228;84;20990;-73
2021/05/31 02:23:18;;;;;;;2.33;1.67;;;;;;;12.25;76.60;100154.84;1666929;85;20996;-74
2021/05/31 02:25:46;;;;;;;1.40;1.22;;;;;;;12.28;76.65;100160.38;1688873;83;22558;-73
2021/05/31 02:28:13;;;;;;;5.12;1.70;;;;;;;12.30;76.62;100161.06;1690798;83;21085;-73
2021/05/31 02:30:40;;;;;;;2.50;1.72;;;;;;;12.32;76.60;100167.06;1692590;83;21040;-73
2021/05/31 02:33:06;;;;;;;2.65;1.60;;;;;;;12.30;76.60;100161.91;1691022;83;21046;-73
2021/05/31 02:35:36;;;;;;;2.62;1.70;;;;;;;12.30;76.60;100163.23;1663800;85;21027;-73
2021/05/31 02:38:03;;;;;;;1.95;1.40;;;;;;;12.30;76.58;100155.28;1712487;83;21736;-73
2021/05/31 02:40:30;;;;;;;4.20;1.50;;;;;;;12.32;76.60;100157.78;1703157;82;21013;-73
2021/05/31 02:43:00;;;;;;;2.75;1.32;;;;;;;12.34;76.52;100163.78;1698489;83;21512;-73
2021/05/31 02:45:27;;;;;;;3.12;1.50;;;;;;;12.32;76.52;100162.59;1661176;85;20999;-73
2021/05/31 02:47:54;;;;;;;2.77;1.35;;;;;;;12.33;76.56;100164.27;1687017;83;21085;-73
2021/05/31 02:50:21;;;;;;;4.37;1.40;;;;;;;12.38;76.56;100175.78;1677647;83;21493;-73
2021/05/31 02:52:47;;;;;;;3.83;1.37;;;;;;;12.41;76.55;100171.53;1692358;83;21553;-73
2021/05/31 02:55:18;;;;;;;1.42;1.27;;;;;;;12.44;76.62;100175.70;1699299;83;21046;-74
2021/05/31 02:57:46;;;;;;;2.42;1.45;;;;;;;12.45;76.62;100172.94;1691591;83;21061;-73
2021/05/31 03:00:15;;;;;;;1.50;1.35;;;;;;;12.49;76.67;100171.67;1678988;85;21035;-76
2021/05/31 03:02:43;;;;;;;2.60;1.40;;;;;;;12.49;76.72;100171.67;1678762;85;21118;-73
2021/05/31 03:05:13;;;;;;;2.58;1.60;;;;;;;12.47;76.70;100172.31;1704243;83;21066;-73
2021/05/31 03:07:40;;;;;;;2.27;1.50;;;;;;;12.47;76.72;100173.63;1693582;83;21029;-74
2021/05/31 03:10:07;;;;;;;2.17;1.67;;;;;;;12.49;76.68;100180.95;1704959;82;20993;-73
2021/05/31 03:12:34;;;;;;;4.00;1.65;;;;;;;12.51;76.63;100184.78;1732710;82;21516;-73
2021/05/31 03:15:05;;;;;;;2.02;1.52;;;;;;;12.49;76.53;100180.95;1732789;82;22201;-73
2021/05/31 03:17:32;;;;;;;3.40;1.62;;;;;;;12.50;76.52;100177.81;1714523;82;21675;-73
2021/05/31 03:19:58;;;;;;;3.45;1.60;;;;;;;12.51;76.49;100180.31;1718140;82;21582;-74
2021/05/31 03:22:25;;;;;;;3.10;1.45;;;;;;;12.54;76.44;100184.00;1666113;83;21541;-73
2021/05/31 03:24:51;;;;;;;3.85;1.62;;;;;;;12.56;76.40;100182.56;1734149;82;21555;-74
2021/05/31 03:27:18;;;;;;;2.10;1.50;;;;;;;12.58;76.33;100182.77;1713068;82;21554;-73
2021/05/31 03:29:44;;;;;;;2.80;1.80;;;;;;;12.58;76.20;100185.41;1711755;82;21542;-73
2021/05/31 03:32:10;;;;;;;2.92;2.00;;;;;;;12.55;76.06;100184.38;1734199;82;21507;-73
2021/05/31 03:34:37;;;;;;;3.17;2.00;;;;;;;12.55;76.13;100181.73;1712497;82;21528;-71
2021/05/31 03:37:04;;;;;;;2.37;1.87;;;;;;;12.59;76.16;100180.95;1716113;81;21064;-72
2021/05/31 03:39:31;;;;;;;3.92;1.70;;;;;;;12.61;76.15;100183.80;1716187;81;22313;-70
2021/05/31 03:41:57;;;;;;;3.60;1.70;;;;;;;12.64;76.09;100183.17;1733202;81;20939;-70
2021/05/31 03:44:24;;;;;;;4.25;1.80;;;;;;;12.65;76.05;100189.68;1727187;81;21045;-70
2021/05/31 03:46:50;;;;;;;4.35;1.72;;;;;;;12.67;75.94;100184.23;1740673;81;20960;-70
2021/05/31 03:49:17;;;;;;;5.78;1.82;;;;;;;12.67;75.90;100187.72;1727931;82;20965;-70
2021/05/31 03:51:45;;;;;;;3.70;1.85;;;;;;;12.70;75.86;100197.20;1725935;81;22502;-70
2021/05/31 03:54:13;;;;;;;2.83;1.75;;;;;;;12.69;75.77;100194.20;1724583;81;21107;-70
2021/05/31 03:56:40;;;;;;;4.00;1.90;;;;;;;12.67;75.76;100193.51;1713102;81;21016;-70
2021/05/31 03:59:07;;;;;;;6.85;1.70;;;;;;;12.68;75.75;100191.20;1728732;81;21021;-68
2021/05/31 04:01:34;;;;;;;4.53;1.90;;;;;;;12.71;75.75;100192.23;1725424;81;21538;-70
2021/05/31 04:04:00;;;;;;;2.33;1.72;;;;;;;12.71;75.60;100189.59;1738416;81;21757;-71
2021/05/31 04:06:43;;;;;;;2.75;1.50;;;;;;;12.69;75.45;100194.20;1716142;82;20985;-71
2021/05/31 04:11:45;;;;;;;4.35;1.42;;;;;;;12.63;75.34;100182.82;1733810;80;21071;-70
2021/05/31 04:14:14;;;;;;;4.30;1.52;;;;;;;12.66;75.29;100186.05;1733240;80;21059;-69
2021/05/31 04:16:44;;;;;;;4.20;1.65;;;;;;;12.67;75.30;100182.42;1728312;81;21781;-67
2021/05/31 04:19:11;;;;;;;2.92;1.82;;;;;;;12.67;75.28;100180.26;1724919;82;20917;-69
2021/05/31 04:21:39;;;;;;;5.55;1.60;;;;;;;12.65;75.25;100181.73;1737806;82;20954;-74
2021/05/31 04:24:07;;;;;;;3.67;1.60;;;;;;;12.64;75.17;100180.52;1728899;81;21053;-72
2021/05/31 04:26:34;;;;;;;1.85;1.52;;;;;;;12.63;75.08;100182.33;1724501;82;21600;-73
2021/05/31 04:29:04;;;;;;;3.05;1.57;;;;;;;12.66;75.11;100179.91;1694054;82;21535;-73
2021/05/31 04:31:32;;;;;;;3.10;1.70;;;;;;;12.68;74.87;100187.23;1723999;81;21456;-71
2021/05/31 04:33:59;;;;;;;4.67;2.27;;;;;;;12.63;74.76;100192.09;1721574;81;21561;-70
2021/05/31 04:36:27;;;;;;;4.00;1.98;;;;;;;12.57;74.58;100200.13;1729786;82;21495;-70
2021/05/31 04:38:54;;;;;;;3.65;1.82;;;;;;;12.55;74.56;100196.79;1718011;81;21045;-73
2021/05/31 04:41:20;;;;;;;4.03;1.92;;;;;;;12.51;74.40;100200.19;1727197;81;22163;-75
2021/05/31 04:43:47;;;;;;;3.33;1.90;;;;;;;12.49;74.43;100198.16;1729624;81;20981;-75
2021/05/31 04:46:14;;;;;;;3.83;1.67;;;;;;;12.47;74.46;100197.48;1731067;81;21005;-75
2021/05/31 04:48:41;;;;;;;3.02;2.08;;;;;;;12.46;74.27;100194.97;1729466;82;21156;-75
2021/05/31 04:51:08;;;;;;;6.85;2.10;;;;;;;12.41;74.23;100200.66;1725960;82;21009;-75
2021/05/31 04:53:34;;;;;;;2.80;2.15;;;;;;;12.41;74.44;100201.98;1710995;83;21791;-75
2021/05/31 04:56:05;;;;;;;2.77;1.92;;;;;;;12.43;74.52;100207.98;1716532;82;20969;-75
2021/05/31 04:58:29;;;;;;;2.72;2.10;;;;;;;12.46;74.69;100205.56;1724833;82;20967;-75
2021/05/31 05:00:56;;;;;;;5.30;2.08;;;;;;;12.43;74.64;100211.95;1738321;82;21040;-75
2021/05/31 05:03:23;;;;;;;2.45;1.92;;;;;;;12.43;74.79;100211.95;1734656;82;21041;-74
2021/05/31 05:05:49;;;;;;;4.22;1.82;;;;;;;12.44;74.74;100220.73;1738616;82;21743;-75
2021/05/31 05:08:16;;;;;;;2.85;1.67;;;;;;;12.41;74.57;100221.85;1724023;82;21064;-75
2021/05/31 05:10:43;;;;;;;4.05;2.00;;;;;;;12.36;74.47;100223.26;1710875;81;21089;-74
2021/05/31 05:13:10;;;;;;;4.92;2.20;;;;;;;12.34;74.62;100226.02;1729208;83;20989;-75
2021/05/31 05:15:36;;;;;;;3.12;1.80;;;;;;;12.34;74.57;100228.66;1713857;82;21038;-75
2021/05/31 05:18:05;;;;;;;3.22;2.20;;;;;;;12.33;74.64;100227.83;1708005;81;21775;-75
2021/05/31 05:20:33;;;;;;;3.50;2.35;;;;;;;12.28;74.65;100226.58;1725080;83;21077;-75
2021/05/31 05:23:00;;;;;;;4.65;2.17;;;;;;;12.27;74.77;100228.39;1659087;85;21001;-75
2021/05/31 05:25:27;;;;;;;3.47;2.10;;;;;;;12.29;74.89;100224.28;1689943;85;21520;-75
2021/05/31 05:27:53;;;;;;;3.92;1.95;;;;;;;12.33;74.92;100226.50;1700006;84;21045;-75
2021/05/31 05:30:26;;;;;;;2.00;1.80;;;;;;;12.36;74.81;100228.06;1725695;83;21743;-75
2021/05/31 05:32:59;;;;;;;4.85;1.90;;;;;;;12.35;74.58;100218.42;1711331;82;21092;-75
2021/05/31 05:35:26;;;;;;;4.87;1.75;;;;;;;12.38;74.51;100222.14;1672297;84;21022;-75
2021/05/31 05:43:16;;;;;;;3.27;1.67;;;;;;;12.57;74.32;100218.67;1719997;81;21760;-74
2021/05/31 05:46:24;;;;;;;2.75;2.15;;;;;;;12.62;74.17;100223.06;1666002;86;21126;-74
2021/05/31 05:48:06;;;;;;;4.80;1.90;;;;;;;12.67;74.13;100218.19;1663800;86;21077;-74
2021/05/31 05:50:34;;;;;;;4.08;2.10;;;;;;;12.73;74.12;100228.70;1719977;83;21121;-74
2021/05/31 05:53:00;;;;;;;5.75;1.80;;;;;;;12.74;73.84;100225.94;1713236;83;21025;-74
2021/05/31 05:55:27;;;;;;;4.30;1.98;;;;;;;12.77;73.84;100224.82;1700767;83;21745;-75
2021/05/31 05:57:55;;;;;;;2.40;1.65;;;;;;;12.77;73.27;100225.66;1688885;83;21039;-75
2021/05/31 06:00:25;;;;;;;3.17;2.10;;;;;;;12.72;73.06;100230.52;1694320;84;21607;-74
2021/05/31 06:02:53;;;;;;;2.70;1.70;;;;;;;12.76;73.17;100231.10;1671454;84;21101;-75
2021/05/31 06:05:19;;;;;;;1.75;1.50;;;;;;;12.82;73.17;100232.69;1665624;84;20994;-76
2021/05/31 06:07:47;;;;;;;4.47;1.70;;;;;;;12.89;73.14;100227.67;1693990;83;21790;-75
2021/05/31 06:10:15;;;;;;;2.87;1.65;;;;;;;12.95;72.82;100225.80;1662552;84;21125;-76
2021/05/31 06:12:41;;;;;;;2.83;1.67;;;;;;;13.02;72.75;100224.23;1684288;84;21510;-75
2021/05/31 06:15:09;;;;;;;3.10;1.70;;;;;;;13.06;72.68;100227.45;1696793;83;21002;-74
2021/05/31 06:17:36;;;;;;;5.00;2.00;;;;;;;13.09;72.51;100226.67;1714304;83;21058;-75
2021/05/31 06:20:05;;;;;;;4.67;1.82;;;;;;;13.13;72.60;100225.43;1718825;83;21737;-74
2021/05/31 06:22:39;;;;;;;2.77;1.57;;;;;;;13.17;72.31;100226.80;1716479;83;21046;-74
2021/05/31 06:25:03;;;;;;;1.98;1.40;;;;;;;13.24;72.17;100232.91;1716056;83;21106;-75
2021/05/31 06:27:30;;;;;;;2.45;1.32;;;;;;;13.27;71.82;100224.17;1659400;85;21008;-75
2021/05/31 06:29:56;;;;;;;3.75;1.52;;;;;;;13.33;71.74;100235.55;1690215;85;21050;-75
2021/05/31 06:32:23;;;;;;;3.40;1.65;;;;;;;13.40;71.53;100226.50;1659257;85;22374;-75
2021/05/31 06:34:50;;;;;;;3.35;1.70;;;;;;;13.45;71.27;100238.86;1695536;83;20994;-75
2021/05/31 06:37:16;;;;;;;2.30;2.00;;;;;;;13.39;71.12;100232.30;1674502;85;21047;-75
2021/05/31 06:39:43;;;;;;;4.28;2.02;;;;;;;13.36;71.19;100233.09;1713679;83;21607;-74
2021/05/31 06:42:10;;;;;;;3.95;1.90;;;;;;;13.33;71.02;100228.08;1690197;85;21515;-75
2021/05/31 06:44:37;;;;;;;4.62;1.62;;;;;;;13.32;70.86;100229.06;1692334;83;21779;-74
2021/05/31 06:47:05;;;;;;;4.58;1.67;;;;;;;13.29;70.64;100222.70;1706171;83;21069;-74
2021/05/31 06:49:36;;;;;;;4.87;2.10;;;;;;;13.28;70.55;100221.02;1703273;83;21038;-75
2021/05/31 06:52:05;;;;;;;4.92;1.95;;;;;;;13.35;70.65;100227.44;1712486;83;21085;-74
2021/05/31 06:54:32;;;;;;;5.92;2.47;;;;;;;13.45;70.78;100224.27;1708309;83;21070;-77
2021/05/31 06:56:59;;;;;;;3.62;2.30;;;;;;;13.56;70.50;100221.44;1706399;83;22157;-75
2021/05/31 06:59:25;;;;;;;5.75;2.47;;;;;;;13.65;70.32;100231.19;1704191;83;21096;-75
2021/05/31 07:01:52;;;;;;;5.83;2.55;;;;;;;13.73;70.02;100226.49;1690113;85;21093;-75
2021/05/31 07:04:20;;;;;;;5.20;2.50;;;;;;;13.80;70.07;100230.70;1704908;83;20998;-76
2021/05/31 07:06:47;;;;;;;4.08;2.20;;;;;;;13.81;69.84;100226.60;1716805;82;21011;-77
2021/05/31 07:09:14;;;;;;;5.00;2.00;;;;;;;13.75;69.70;100229.34;1718972;83;21687;-76
2021/05/31 07:11:46;;;;;;;4.67;2.27;;;;;;;13.73;69.63;100232.63;1723632;81;20989;-75
2021/05/31 07:14:16;;;;;;;5.45;2.25;;;;;;;13.73;69.49;100235.29;1726826;82;21488;-75
2021/05/31 07:16:41;;;;;;;5.10;2.30;;;;;;;13.66;69.41;100238.66;1700987;83;21017;-75
2021/05/31 07:19:07;;;;;;;6.10;2.45;;;;;;;13.62;69.34;100235.47;1641544;86;20978;-76
2021/05/31 07:21:34;;;;;;;3.85;2.30;;;;;;;13.56;69.55;100237.36;1635041;86;22235;-77
2021/05/31 07:24:01;;;;;;;4.50;2.10;;;;;;;13.57;69.73;100241.69;1673375;83;21569;-75
2021/05/31 07:26:27;;;;;;;2.87;1.95;;;;;;;13.59;69.66;100245.02;1696795;83;21623;-76
2021/05/31 07:28:54;;;;;;;5.65;2.00;;;;;;;13.46;69.11;100250.66;1642969;85;21079;-75
2021/05/31 07:31:21;;;;;;;5.67;2.10;;;;;;;13.36;69.37;100244.53;1643906;86;20974;-75
2021/05/31 07:33:47;;;;;;;5.08;2.20;;;;;;;13.34;69.47;100247.83;1659534;85;22431;-76
2021/05/31 07:36:15;;;;;;;3.00;1.92;;;;;;;13.28;69.68;100244.41;1687668;83;21088;-76
2021/05/31 07:38:42;;;;;;;4.97;2.00;;;;;;;13.32;69.75;100247.63;1664696;85;21040;-75
2021/05/31 07:41:09;;;;;;;4.83;1.95;;;;;;;13.36;69.74;100249.01;1666032;85;21066;-75
2021/05/31 07:43:36;;;;;;;5.08;1.72;;;;;;;13.39;69.44;100256.67;1697926;83;21071;-75
2021/05/31 07:46:03;;;;;;;5.20;1.77;;;;;;;13.36;68.96;100253.82;1700406;82;21817;-75
2021/05/31 07:48:31;;;;;;;4.80;2.00;;;;;;;13.42;69.26;100256.41;1704566;83;21018;-75
2021/05/31 07:51:20;;;;;;;2.35;1.62;;;;;;;13.46;69.09;100257.78;1726650;82;20966;-75
2021/05/31 07:53:51;;;;;;;6.50;1.80;;;;;;;13.48;69.04;100261.13;1694363;83;21592;-74
2021/05/31 07:56:25;;;;;;;2.00;1.50;;;;;;;13.45;68.69;100264.07;1704158;83;21527;-73
2021/05/31 07:58:51;;;;;;;1.80;1.50;;;;;;;13.43;68.51;100259.41;1659387;86;22558;-72
2021/05/31 08:01:17;;;;;;;5.92;1.60;;;;;;;13.46;68.58;100261.76;1687062;83;21505;-71
2021/05/31 08:03:47;;;;;;;2.85;1.80;;;;;;;13.52;68.69;100261.69;1674502;83;21049;-71
2021/05/31 08:06:14;;;;;;;6.45;1.60;;;;;;;13.59;68.70;100265.42;1682738;85;21109;-71
2021/05/31 08:08:42;;;;;;;3.00;1.45;;;;;;;13.67;68.52;100261.07;1663601;85;21006;-71
2021/05/31 08:11:10;;;;;;;4.75;1.60;;;;;;;13.74;68.45;100268.81;1709677;82;22315;-71
2021/05/31 08:13:38;;;;;;;3.58;1.42;;;;;;;13.79;68.02;100275.49;1707592;82;21078;-71
2021/05/31 08:16:06;;;;;;;2.02;1.37;;;;;;;13.80;68.01;100273.17;1722889;82;21057;-72
2021/05/31 08:18:33;;;;;;;3.40;1.57;;;;;;;13.82;67.57;100277.87;1727083;82;21578;-70
2021/05/31 08:21:01;;;;;;;2.70;1.55;;;;;;;13.75;66.99;100274.95;1701331;83;21002;-72
2021/05/31 08:23:29;;;;;;;6.28;1.42;;;;;;;13.69;67.06;100278.17;1692994;83;21655;-72
2021/05/31 08:25:55;;;;;;;6.10;1.47;;;;;;;13.74;67.05;100282.08;1715222;81;21056;-72
2021/05/31 08:28:22;;;;;;;2.12;1.25;;;;;;;13.75;66.99;100277.61;1720299;82;21016;-74
2021/05/31 08:30:49;;;;;;;3.90;1.35;;;;;;;13.82;66.69;100283.19;1739187;82;20985;-73
2021/05/31 08:33:15;;;;;;;1.42;1.22;;;;;;;13.84;66.52;100278.07;1738092;82;21075;-73
2021/05/31 08:35:45;;;;;;;2.72;1.47;;;;;;;13.84;65.80;100281.22;1722925;82;21745;-72
2021/05/31 08:38:12;;;;;;;4.37;1.15;;;;;;;13.84;65.99;100283.38;1732886;82;20958;-72
2021/05/31 08:40:40;;;;;;;4.70;1.40;;;;;;;13.91;65.98;100286.30;1725794;82;21036;-74
2021/05/31 08:43:07;;;;;;;4.92;1.50;;;;;;;13.98;66.01;100285.55;1738801;82;21064;-74
2021/05/31 08:45:37;;;;;;;2.27;1.30;;;;;;;14.02;65.88;100281.64;1732401;82;21042;-73
2021/05/31 08:48:03;;;;;;;3.35;1.10;;;;;;;14.07;65.46;100282.52;1728322;82;22561;-73
2021/05/31 08:50:31;;;;;;;6.35;1.35;;;;;;;14.06;65.33;100286.64;1719293;82;21609;-74
2021/05/31 08:52:58;;;;;;;6.72;1.20;;;;;;;14.01;64.98;100286.61;1733571;82;21029;-74
2021/05/31 08:55:27;;;;;;;2.30;0.95;;;;;;;13.97;64.84;100282.55;1727605;82;20958;-74
2021/05/31 08:57:54;;;;;;;3.30;1.20;;;;;;;13.91;65.22;100287.63;1737962;82;21562;-72
2021/05/31 09:00:26;;;;;;;3.40;1.00;;;;;;;13.92;65.23;100285.31;1725509;82;22189;-74
2021/05/31 09:02:54;;;;;;;3.47;0.90;;;;;;;13.92;65.04;100280.84;1719555;82;21531;-73
2021/05/31 09:05:37;;;;;;;1.30;1.20;;;;;;;13.91;64.85;100287.63;1739589;82;20938;-75
2021/05/31 09:08:08;;;;;;;3.47;1.07;;;;;;;13.93;64.82;100285.66;1719249;82;21043;-76
2021/05/31 09:10:43;;;;;;;1.22;0.90;;;;;;;13.93;64.67;100289.64;1726106;82;20976;-72
2021/05/31 09:13:09;;;;;;;1.17;0.90;;;;;;;13.94;65.03;100282.85;1717652;82;21767;-71
2021/05/31 09:15:36;;;;;;;3.95;1.10;;;;;;;14.00;65.45;100288.92;1700201;82;21044;-73
2021/05/31 09:18:03;;;;;;;3.47;0.90;;;;;;;14.04;65.18;100286.30;1732590;82;21089;-72
2021/05/31 09:20:31;;;;;;;1.20;1.02;;;;;;;14.03;65.36;100285.13;1717583;82;21036;-73
2021/05/31 09:22:58;;;;;;;2.42;1.02;;;;;;;14.09;65.21;100291.66;1730457;82;20965;-71
2021/05/31 09:25:34;;;;;;;2.37;1.10;;;;;;;14.12;65.53;100294.04;1709212;82;22691;-71
2021/05/31 09:28:06;;;;;;;1.45;1.10;;;;;;;14.12;65.36;100287.40;1713418;82;20957;-71
2021/05/31 09:30:40;;;;;;;4.03;1.20;;;;;;;14.14;65.36;100292.91;1733598;82;21069;-73
2021/05/31 09:33:10;;;;;;;4.45;1.17;;;;;;;14.10;65.16;100296.84;1723365;82;21044;-71
2021/05/31 09:35:43;;;;;;;2.00;1.02;;;;;;;14.10;64.98;100302.16;1721253;82;21572;-72
2021/05/31 09:38:10;;;;;;;2.33;0.90;;;;;;;14.08;64.68;100294.80;1727131;82;21849;-72
2021/05/31 09:40:37;;;;;;;1.82;0.90;;;;;;;14.02;64.52;100296.24;1727328;81;21483;-72
2021/05/31 09:43:05;;;;;;;1.80;0.90;;;;;;;13.98;64.57;100292.68;1717052;82;21024;-70
2021/05/31 09:45:33;;;;;;;0.95;0.82;;;;;;;13.96;64.39;100295.98;1712191;82;21049;-72
2021/05/31 09:48:01;;;;;;;1.15;0.90;;;;;;;13.97;64.51;100298.98;1723007;82;20993;-74
2021/05/31 09:50:30;;;;;;;1.95;0.80;;;;;;;14.01;64.38;100294.58;1719161;81;21768;-72
2021/05/31 09:53:09;;;;;;;7.78;0.80;;;;;;;14.08;64.18;100297.95;1711544;82;20945;-73
2021/05/31 09:55:44;;;;;;;1.67;0.70;;;;;;;14.16;64.32;100293.59;1709082;82;22552;-71
2021/05/31 09:58:14;;;;;;;2.92;0.90;;;;;;;14.28;64.14;100300.87;1731947;82;21013;-74
2021/05/31 10:00:52;;;;;;;0.80;0.80;;;;;;;14.39;64.28;100300.70;1711372;82;20958;-71
2021/05/31 10:05:59;;;;;;;1.90;1.00;;;;;;;14.63;63.50;100303.30;1714926;82;21604;-72
2021/05/31 10:10:56;;;;;;;2.27;0.80;;;;;;;14.81;62.08;100305.50;1713571;81;21096;-72
2021/05/31 10:13:24;;;;;;;1.15;0.80;;;;;;;14.82;61.94;100306.67;1664483;85;21030;-72
2021/05/31 10:15:50;;;;;;;3.92;1.47;;;;;;;14.88;61.97;100310.56;1724107;82;22274;-71
2021/05/31 10:18:19;;;;;;;1.67;0.82;;;;;;;14.98;62.22;100308.67;1698015;83;20977;-73
2021/05/31 10:20:47;;;;;;;1.12;0.80;;;;;;;15.08;61.57;100300.61;1712795;82;21034;-72
2021/05/31 10:23:14;;;;;;;3.67;0.90;;;;;;;15.10;61.29;100293.30;1729279;83;21073;-71
2021/05/31 10:25:45;;;;;;;1.45;0.80;;;;;;;15.16;61.17;100303.34;1722189;83;21021;-72
2021/05/31 10:28:15;;;;;;;4.95;1.00;;;;;;;15.22;61.21;100297.39;1665061;85;21846;-72
2021/05/31 10:30:49;;;;;;;6.20;0.90;;;;;;;15.11;59.82;100293.15;1699662;83;20979;-72
2021/05/31 10:33:19;;;;;;;2.83;1.02;;;;;;;15.06;60.43;100290.63;1710637;83;21069;-71
2021/05/31 10:35:46;;;;;;;8.28;1.10;;;;;;;14.99;59.86;100294.87;1694216;83;21027;-73
2021/05/31 10:38:18;;;;;;;0.75;0.60;;;;;;;14.86;59.75;100301.41;1698126;83;21137;-70
2021/05/31 10:40:47;;;;;;;1.30;1.00;;;;;;;14.78;60.16;100297.34;1693692;83;22363;-70
2021/05/31 10:43:19;;;;;;;6.50;0.90;;;;;;;14.77;60.54;100295.67;1723950;83;21057;-71
2021/05/31 10:45:46;;;;;;;3.08;0.90;;;;;;;14.78;60.71;100297.34;1704446;83;21646;-70
2021/05/31 10:48:17;;;;;;;1.30;0.80;;;;;;;14.83;60.89;100300.86;1666396;86;21082;-70
2021/05/31 10:51:00;;;;;;;3.45;1.00;;;;;;;14.91;60.79;100293.46;1712638;81;21131;-70
2021/05/31 10:53:31;;;;;;;3.67;0.98;;;;;;;14.93;60.63;100293.64;1661340;84;22367;-70
2021/05/31 10:56:02;;;;;;;4.28;0.93;;;;;;;14.88;60.93;100299.92;1713687;82;21053;-71
2021/05/31 10:58:40;;;;;;;2.92;0.82;;;;;;;14.89;61.37;100298.44;1689010;84;20968;-70
2021/05/31 11:01:12;;;;;;;1.50;0.80;;;;;;;14.90;61.01;100299.27;1704323;83;21018;-70
2021/05/31 11:04:01;;;;;;;3.67;1.22;;;;;;;14.88;60.81;100297.27;1722842;83;21017;-70
2021/05/31 11:06:42;;;;;;;1.52;0.80;;;;;;;14.88;60.28;100292.78;1667393;84;22542;-70
2021/05/31 11:09:13;;;;;;;1.80;0.95;;;;;;;14.78;59.62;100296.50;1679571;83;21037;-70
2021/05/31 11:11:55;;;;;;;4.75;1.00;;;;;;;14.69;59.75;100297.41;1717356;81;21038;-70
2021/05/31 11:14:38;;;;;;;0.62;0.62;;;;;;;14.65;60.32;100300.00;1710455;83;21001;-70
2021/05/31 11:17:16;;;;;;;1.20;0.70;;;;;;;14.70;60.75;100301.73;1715102;83;21542;-70
2021/05/31 11:19:52;;;;;;;3.62;0.82;;;;;;;14.68;60.05;100301.89;1708347;82;21191;-70
2021/05/31 11:22:21;;;;;;;6.67;0.80;;;;;;;14.63;60.37;100297.98;1659484;85;20987;-69
2021/05/31 11:24:53;;;;;;;1.70;0.80;;;;;;;14.62;60.29;100299.81;1685401;85;21505;-70
2021/05/31 11:27:24;;;;;;;3.12;0.68;;;;;;;14.55;60.24;100303.55;1659487;86;21083;-70
2021/05/31 11:29:51;;;;;;;3.08;0.68;;;;;;;14.56;60.52;100302.56;1695235;83;21532;-70
2021/05/31 11:32:19;;;;;;;1.60;0.78;;;;;;;14.59;60.53;100302.28;1642858;84;22163;-70
2021/05/31 11:35:01;;;;;;;3.52;0.95;;;;;;;14.62;60.77;100304.30;1686897;82;21063;-70
2021/05/31 11:37:30;;;;;;;1.52;0.82;;;;;;;14.65;61.15;100296.84;1655862;83;21504;-71
2021/05/31 11:39:58;;;;;;;2.35;0.68;;;;;;;14.73;61.31;100294.77;1653491;85;21042;-70
2021/05/31 11:42:25;;;;;;;2.58;0.60;;;;;;;14.77;61.35;100295.67;1668125;83;21128;-69
2021/05/31 11:44:55;;;;;;;4.62;0.68;;;;;;;14.79;60.92;100289.70;1698668;83;21721;-69
2021/05/31 11:47:27;;;;;;;59.65;10.43;;;;;;;14.75;60.41;100293.63;1662804;84;21144;-69